Time;durP1;ratioP1;P1;durP2;ratioP2;P2;SDS_P1;SDS_P2;PMS_P1;PMS_P2;Temp;Humidity;BMP_temperature;BMP_pressure;BME280_temperature;BME280_humidity;BME280_pressure;Samples;Min_cycle;Max_cycle;Signal;HPM_P1;HPM_P2
2022/04/22 00:00:09;;;;;;;;;;;;;;;;;;5053502;28;20876;-82
2022/04/22 00:02:38;;;;;;;;;;;;;;;;;;5058240;28;19950;-82
2022/04/22 00:05:05;;;;;;;;;;;;;;;;;;5038949;28;20016;-83
2022/04/22 00:07:33;;;;;;;;;;;;;;;;;;5056807;28;19928;-82
2022/04/22 00:10:04;;;;;;;;;;;;;;;;;;5052163;28;19931;-82
2022/04/22 00:12:32;;;;;;;;;;;;;;;;;;5057666;28;23318;-82
2022/04/22 00:14:59;;;;;;;;;;;;;;;;;;5051137;28;19969;-83
2022/04/22 00:17:26;;;;;;;;;;;;;;;;;;5055706;28;19955;-82
2022/04/22 00:19:53;;;;;;;;;;;;;;;;;;5017000;28;20675;-82
2022/04/22 00:22:21;;;;;;;;;;;;;;;;;;5036893;28;19929;-83
2022/04/22 00:24:48;;;;;;;;;;;;;;;;;;5037132;28;19947;-82
2022/04/22 00:27:15;;;;;;;;;;;;;;;;;;5019516;28;19928;-82
2022/04/22 00:29:43;;;;;;;;;;;;;;;;;;5011462;28;19921;-82
2022/04/22 00:32:09;;;;;;;;;;;;;;;;;;5011594;28;19928;-82
2022/04/22 00:34:36;;;;;;;;;;;;;;;;;;5020422;28;19940;-82
2022/04/22 00:37:03;;;;;;;;;;;;;;;;;;4998599;28;19971;-83
2022/04/22 00:39:31;;;;;;;;;;;;;;;;;;5005018;28;19928;-82
2022/04/22 00:42:17;;;;;;;;;;;;;;;;;;4990863;28;20468;-82
2022/04/22 00:44:44;;;;;;;;;;;;;;;;;;4967651;28;19921;-82
2022/04/22 00:47:11;;;;;;;;;;;;;;;;;;4982386;28;19935;-82
2022/04/22 00:49:38;;;;;;;;;;;;;;;;;;4979353;28;20047;-82
2022/04/22 00:52:04;;;;;;;;;;;;;;;;;;4975677;28;20777;-82
2022/04/22 00:54:32;;;;;;;;;;;;;;;;;;4997174;28;20032;-82
2022/04/22 00:56:58;;;;;;;;;;;;;;;;;;4975025;28;19972;-82
2022/04/22 00:59:25;;;;;;;;;;;;;;;;;;5000808;28;20058;-82
2022/04/22 01:01:51;;;;;;;;;;;;;;;;;;4977994;28;20501;-83
2022/04/22 01:09:56;;;;;;;;;;;;;;;;;;4990822;28;19991;-82
2022/04/22 01:12:23;;;;;;;;;;;;;;;;;;4983487;28;19929;-82
2022/04/22 01:14:50;;;;;;;;;;;;;;;;;;5017559;28;20375;-82
2022/04/22 01:17:16;;;;;;;;;;;;;;;;;;5020536;28;19920;-82
2022/04/22 01:19:44;;;;;;;;;;;;;;;;;;5004191;28;19932;-82
2022/04/22 01:22:11;;;;;;;;;;;;;;;;;;5015235;28;20676;-82
2022/04/22 01:24:38;;;;;;;;;;;;;;;;;;5018840;28;19928;-82
2022/04/22 01:27:05;;;;;;;;;;;;;;;;;;5014790;28;19928;-82
2022/04/22 01:29:33;;;;;;;;;;;;;;;;;;5019812;28;20410;-82
2022/04/22 01:32:00;;;;;;;;;;;;;;;;;;4998913;28;20397;-82
2022/04/22 01:34:27;;;;;;;;;;;;;;;;;;5004385;28;19925;-82
2022/04/22 01:36:55;;;;;;;;;;;;;;;;;;4999583;28;19931;-82
2022/04/22 01:39:22;;;;;;;;;;;;;;;;;;5016338;28;19928;-82
2022/04/22 01:41:52;;;;;;;;;;;;;;;;;;5004315;28;19929;-82
2022/04/22 01:44:20;;;;;;;;;;;;;;;;;;5020523;28;19964;-82
2022/04/22 01:46:47;;;;;;;;;;;;;;;;;;5037353;28;20019;-82
2022/04/22 01:49:13;;;;;;;;;;;;;;;;;;5034498;28;20386;-82
2022/04/22 01:51:40;;;;;;;;;;;;;;;;;;5003972;28;19929;-82
2022/04/22 01:54:09;;;;;;;;;;;;;;;;;;5029179;22;19936;-90
2022/04/22 01:56:36;;;;;;;;;;;;;;;;;;5023067;28;19974;-90
2022/04/22 01:59:02;;;;;;;;;;;;;;;;;;5012953;28;19925;-91
2022/04/22 02:01:41;;;;;;;;;;;;;;;;;;5028869;28;20313;-90
2022/04/22 02:04:14;;;;;;;;;;;;;;;;;;5013900;28;20011;-89
2022/04/22 02:06:40;;;;;;;;;;;;;;;;;;5027539;28;19936;-90
2022/04/22 02:09:27;;;;;;;;;;;;;;;;;;5022415;28;19929;-91
2022/04/22 02:11:57;;;;;;;;;;;;;;;;;;5023320;28;19986;-92
2022/04/22 02:14:26;;;;;;;;;;;;;;;;;;5010583;28;19998;-91
2022/04/22 02:16:52;;;;;;;;;;;;;;;;;;5022678;28;19935;-91
2022/04/22 02:19:35;;;;;;;;;;;;;;;;;;5015380;28;20333;-93
2022/04/22 02:22:04;;;;;;;;;;;;;;;;;;5014753;28;19925;-90
2022/04/22 02:24:35;;;;;;;;;;;;;;;;;;5016421;28;19921;-90
2022/04/22 02:29:52;;;;;;;;;;;;;;;;;;5028463;28;20374;-92
2022/04/22 02:32:18;;;;;;;;;;;;;;;;;;5016547;28;19920;-90
2022/04/22 02:34:44;;;;;;;;;;;;;;;;;;5014817;28;19931;-90
2022/04/22 02:37:10;;;;;;;;;;;;;;;;;;5006295;28;20859;-91
2022/04/22 02:39:36;;;;;;;;;;;;;;;;;;5027090;28;19972;-90
2022/04/22 02:47:32;;;;;;;;;;;;;;;;;;5026478;28;19924;-91
2022/04/22 02:49:58;;;;;;;;;;;;;;;;;;5024203;28;19928;-91
2022/04/22 02:52:29;;;;;;;;;;;;;;;;;;5012405;28;20412;-89
2022/04/22 02:54:55;;;;;;;;;;;;;;;;;;4994008;28;20376;-91
2022/04/22 02:57:21;;;;;;;;;;;;;;;;;;5005275;28;19929;-91
2022/04/22 02:59:48;;;;;;;;;;;;;;;;;;4995589;28;19933;-89
2022/04/22 03:02:21;;;;;;;;;;;;;;;;;;5008396;28;20642;-91
2022/04/22 03:04:55;;;;;;;;;;;;;;;;;;4988861;28;20027;-90
2022/04/22 03:07:23;;;;;;;;;;;;;;;;;;4988395;28;19925;-91
2022/04/22 03:09:52;;;;;;;;;;;;;;;;;;4989690;28;20434;-90
2022/04/22 03:12:21;;;;;;;;;;;;;;;;;;4991602;28;19931;-89
2022/04/22 03:14:51;;;;;;;;;;;;;;;;;;5001185;28;19921;-91
2022/04/22 03:17:17;;;;;;;;;;;;;;;;;;5004985;28;19929;-90
2022/04/22 03:19:49;;;;;;;;;;;;;;;;;;5027569;28;19932;-90
2022/04/22 03:22:20;;;;;;;;;;;;;;;;;;4992832;28;19927;-90
2022/04/22 03:24:52;;;;;;;;;;;;;;;;;;4990978;28;19921;-90
2022/04/22 03:27:24;;;;;;;;;;;;;;;;;;4994187;28;20055;-91
2022/04/22 03:29:52;;;;;;;;;;;;;;;;;;4992120;28;19929;-93
2022/04/22 03:32:18;;;;;;;;;;;;;;;;;;4998440;28;21717;-91
2022/04/22 03:34:50;;;;;;;;;;;;;;;;;;4994687;28;19975;-90
2022/04/22 03:37:26;;;;;;;;;;;;;;;;;;5011978;28;20291;-91
2022/04/22 03:39:55;;;;;;;;;;;;;;;;;;4983112;28;19929;-90
2022/04/22 03:42:26;;;;;;;;;;;;;;;;;;4992131;28;20027;-92
2022/04/22 03:44:52;;;;;;;;;;;;;;;;;;4987929;28;19929;-90
2022/04/22 03:47:24;;;;;;;;;;;;;;;;;;5008500;28;20003;-89
2022/04/22 03:49:52;;;;;;;;;;;;;;;;;;4991087;28;19921;-90
2022/04/22 03:52:29;;;;;;;;;;;;;;;;;;4991364;28;19924;-92
2022/04/22 03:54:58;;;;;;;;;;;;;;;;;;4997097;28;20587;-90
2022/04/22 04:00:09;;;;;;;;;;;;;;;;;;5022704;28;22049;-89
2022/04/22 04:02:35;;;;;;;;;;;;;;;;;;5023043;28;19960;-91
2022/04/22 04:05:05;;;;;;;;;;;;;;;;;;5006512;28;20279;-90
2022/04/22 04:07:34;;;;;;;;;;;;;;;;;;5011804;28;19929;-89
2022/04/22 04:18:20;;;;;;;;;;;;;;;;;;5010259;28;19928;-90
2022/04/22 04:23:31;;;;;;;;;;;;;;;;;;5028296;28;20386;-90
2022/04/22 04:26:00;;;;;;;;;;;;;;;;;;5006631;28;20054;-90
2022/04/22 04:28:27;;;;;;;;;;;;;;;;;;5023475;28;20757;-92
2022/04/22 04:30:56;;;;;;;;;;;;;;;;;;5007391;28;19920;-91
2022/04/22 04:33:33;;;;;;;;;;;;;;;;;;5016473;28;19971;-90
2022/04/22 04:35:59;;;;;;;;;;;;;;;;;;5025759;28;19979;-91
2022/04/22 04:38:29;;;;;;;;;;;;;;;;;;5014684;28;20043;-89
2022/04/22 04:40:57;;;;;;;;;;;;;;;;;;5030039;28;19948;-90
2022/04/22 04:43:23;;;;;;;;;;;;;;;;;;5012837;28;19982;-90
2022/04/22 04:45:52;;;;;;;;;;;;;;;;;;5027353;28;19925;-91
2022/04/22 04:48:18;;;;;;;;;;;;;;;;;;5030244;28;19970;-91
2022/04/22 04:50:44;;;;;;;;;;;;;;;;;;5011593;28;19928;-92
2022/04/22 04:53:13;;;;;;;;;;;;;;;;;;4996198;28;20605;-91
2022/04/22 04:55:39;;;;;;;;;;;;;;;;;;5025250;28;19925;-90
2022/04/22 04:58:07;;;;;;;;;;;;;;;;;;5014704;28;19920;-91
2022/04/22 05:00:36;;;;;;;;;;;;;;;;;;5034494;28;20414;-92
2022/04/22 05:03:05;;;;;;;;;;;;;;;;;;5007476;28;19928;-91
2022/04/22 05:05:34;;;;;;;;;;;;;;;;;;5012098;28;19920;-90
2022/04/22 05:08:03;;;;;;;;;;;;;;;;;;5009485;28;19924;-91
2022/04/22 05:10:29;;;;;;;;;;;;;;;;;;5013819;28;19921;-93
2022/04/22 05:13:01;;;;;;;;;;;;;;;;;;5010908;28;20392;-90
2022/04/22 05:15:33;;;;;;;;;;;;;;;;;;5016625;28;19973;-91
2022/04/22 05:18:02;;;;;;;;;;;;;;;;;;5024266;28;19974;-90
2022/04/22 05:20:33;;;;;;;;;;;;;;;;;;5016746;28;20050;-90
2022/04/22 05:23:02;;;;;;;;;;;;;;;;;;5027625;28;19928;-91
2022/04/22 05:25:31;;;;;;;;;;;;;;;;;;5020286;28;20298;-91
2022/04/22 05:27:59;;;;;;;;;;;;;;;;;;5016078;28;19928;-91
2022/04/22 05:33:10;;;;;;;;;;;;;;;;;;5030688;28;22328;-91
2022/04/22 05:35:40;;;;;;;;;;;;;;;;;;5023054;28;19921;-91
2022/04/22 05:38:09;;;;;;;;;;;;;;;;;;5032630;28;20374;-91
2022/04/22 05:40:35;;;;;;;;;;;;;;;;;;5036409;28;19928;-90
2022/04/22 05:43:10;;;;;;;;;;;;;;;;;;5015673;28;19935;-90
2022/04/22 05:45:39;;;;;;;;;;;;;;;;;;5019906;28;19971;-91
2022/04/22 05:48:10;;;;;;;;;;;;;;;;;;5033532;28;19920;-91
2022/04/22 05:50:39;;;;;;;;;;;;;;;;;;5026284;28;20002;-92
2022/04/22 05:53:06;;;;;;;;;;;;;;;;;;5032158;28;20327;-92
2022/04/22 05:55:32;;;;;;;;;;;;;;;;;;4997582;28;19929;-91
2022/04/22 05:58:03;;;;;;;;;;;;;;;;;;4996380;28;19983;-91
2022/04/22 06:00:38;;;;;;;;;;;;;;;;;;5018134;28;19933;-91
2022/04/22 06:03:04;;;;;;;;;;;;;;;;;;5012923;28;19936;-90
2022/04/22 06:05:32;;;;;;;;;;;;;;;;;;5010796;28;19929;-91
2022/04/22 06:10:43;;;;;;;;;;;;;;;;;;5012780;28;19924;-90
2022/04/22 06:13:12;;;;;;;;;;;;;;;;;;5012575;28;19928;-91
2022/04/22 06:15:45;;;;;;;;;;;;;;;;;;5001472;28;19951;-93
2022/04/22 06:18:11;;;;;;;;;;;;;;;;;;5014149;28;19929;-92
2022/04/22 06:20:45;;;;;;;;;;;;;;;;;;5003549;28;20581;-92
2022/04/22 06:23:11;;;;;;;;;;;;;;;;;;5000142;28;19928;-92
2022/04/22 06:25:40;;;;;;;;;;;;;;;;;;5008423;28;20454;-93
2022/04/22 06:28:07;;;;;;;;;;;;;;;;;;5018572;28;19936;-92
2022/04/22 06:30:40;;;;;;;;;;;;;;;;;;5018586;28;19921;-90
2022/04/22 06:33:09;;;;;;;;;;;;;;;;;;5000201;28;20588;-94
2022/04/22 06:35:35;;;;;;;;;;;;;;;;;;5023570;28;20007;-92
2022/04/22 06:38:01;;;;;;;;;;;;;;;;;;5005304;28;19921;-91
2022/04/22 06:46:09;;;;;;;;;;;;;;;;;;5019951;28;19995;-92
2022/04/22 06:48:38;;;;;;;;;;;;;;;;;;5003808;28;19920;-90
2022/04/22 06:51:07;;;;;;;;;;;;;;;;;;5004386;28;20024;-90
2022/04/22 06:53:38;;;;;;;;;;;;;;;;;;5025498;28;19964;-91
2022/04/22 06:56:13;;;;;;;;;;;;;;;;;;5020249;28;19931;-91
2022/04/22 06:58:40;;;;;;;;;;;;;;;;;;5026164;28;20435;-91
2022/04/22 07:01:06;;;;;;;;;;;;;;;;;;5029128;28;19931;-91
2022/04/22 07:03:35;;;;;;;;;;;;;;;;;;5036194;28;20346;-90
2022/04/22 07:06:04;;;;;;;;;;;;;;;;;;5018522;28;20402;-92
2022/04/22 07:08:46;;;;;;;;;;;;;;;;;;5045428;28;19932;-90
2022/04/22 07:11:17;;;;;;;;;;;;;;;;;;5033509;28;19921;-90
2022/04/22 07:13:44;;;;;;;;;;;;;;;;;;5042076;28;19924;-92
2022/04/22 07:16:20;;;;;;;;;;;;;;;;;;5038856;28;19929;-91
2022/04/22 07:18:47;;;;;;;;;;;;;;;;;;5045562;28;19943;-92
2022/04/22 07:21:13;;;;;;;;;;;;;;;;;;5020633;28;19975;-91
2022/04/22 07:23:43;;;;;;;;;;;;;;;;;;5022900;28;19924;-91
2022/04/22 07:26:14;;;;;;;;;;;;;;;;;;5021162;28;21869;-90
2022/04/22 07:28:43;;;;;;;;;;;;;;;;;;5041992;28;19932;-90
2022/04/22 07:31:12;;;;;;;;;;;;;;;;;;5020473;28;20394;-91
2022/04/22 07:33:38;;;;;;;;;;;;;;;;;;5024938;28;19920;-89
2022/04/22 07:36:04;;;;;;;;;;;;;;;;;;5023647;28;20020;-92
2022/04/22 07:38:31;;;;;;;;;;;;;;;;;;5024650;28;19974;-90
2022/04/22 07:41:15;;;;;;;;;;;;;;;;;;5035327;28;19929;-90
2022/04/22 07:49:16;;;;;;;;;;;;;;;;;;5034339;28;19964;-91
2022/04/22 07:51:42;;;;;;;;;;;;;;;;;;5042302;28;19927;-91
2022/04/22 07:54:12;;;;;;;;;;;;;;;;;;5023724;28;19925;-93
2022/04/22 07:56:39;;;;;;;;;;;;;;;;;;5028832;28;20386;-91
2022/04/22 07:59:07;;;;;;;;;;;;;;;;;;5037365;28;20337;-91
2022/04/22 08:01:33;;;;;;;;;;;;;;;;;;5021770;28;20470;-92
2022/04/22 08:04:01;;;;;;;;;;;;;;;;;;5031563;28;21035;-91
2022/04/22 08:06:27;;;;;;;;;;;;;;;;;;5022401;28;19987;-92
2022/04/22 08:09:02;;;;;;;;;;;;;;;;;;5030521;28;19929;-90
2022/04/22 08:11:28;;;;;;;;;;;;;;;;;;5033745;28;19924;-92
2022/04/22 08:13:55;;;;;;;;;;;;;;;;;;5016074;28;19928;-91
2022/04/22 08:16:21;;;;;;;;;;;;;;;;;;5017819;28;20451;-92
2022/04/22 08:18:49;;;;;;;;;;;;;;;;;;5025567;28;20485;-91
2022/04/22 08:21:18;;;;;;;;;;;;;;;;;;5021267;28;20351;-91
2022/04/22 08:23:48;;;;;;;;;;;;;;;;;;5027760;28;20000;-92
2022/04/22 08:26:20;;;;;;;;;;;;;;;;;;5023926;28;19950;-94
2022/04/22 08:28:55;;;;;;;;;;;;;;;;;;5033153;28;19928;-93
2022/04/22 08:31:21;;;;;;;;;;;;;;;;;;5023132;28;19971;-93
2022/04/22 08:33:50;;;;;;;;;;;;;;;;;;5036871;28;19971;-92
2022/04/22 08:36:18;;;;;;;;;;;;;;;;;;5015556;28;19921;-92
2022/04/22 08:38:44;;;;;;;;;;;;;;;;;;5037505;28;19925;-93
2022/04/22 08:41:10;;;;;;;;;;;;;;;;;;5019797;28;19933;-91
2022/04/22 08:43:36;;;;;;;;;;;;;;;;;;5041381;28;20278;-93
2022/04/22 08:46:02;;;;;;;;;;;;;;;;;;5021439;28;19928;-94
2022/04/22 08:51:13;;;;;;;;;;;;;;;;;;5039506;28;19947;-94
2022/04/22 08:53:39;;;;;;;;;;;;;;;;;;5050112;28;19933;-92
2022/04/22 08:56:07;;;;;;;;;;;;;;;;;;5028983;28;19929;-93
2022/04/22 08:58:36;;;;;;;;;;;;;;;;;;5044419;28;19935;-91
2022/04/22 09:01:02;;;;;;;;;;;;;;;;;;5027511;28;19933;-92
2022/04/22 09:03:28;;;;;;;;;;;;;;;;;;5031890;28;20019;-92
2022/04/22 09:05:54;;;;;;;;;;;;;;;;;;5035149;28;19960;-93
2022/04/22 09:08:22;;;;;;;;;;;;;;;;;;5031769;28;20341;-92
2022/04/22 09:10:51;;;;;;;;;;;;;;;;;;5034492;28;20408;-93
2022/04/22 09:13:17;;;;;;;;;;;;;;;;;;5037573;28;19920;-94
2022/04/22 09:15:46;;;;;;;;;;;;;;;;;;5030660;28;20034;-92
2022/04/22 09:18:13;;;;;;;;;;;;;;;;;;5024150;28;20074;-92
2022/04/22 09:20:49;;;;;;;;;;;;;;;;;;;;;
2022/04/22 09:23:15;;;;;;;;;;;;;;;;;;5048624;28;19925;-95
2022/04/22 09:25:46;;;;;;;;;;;;;;;;;;5038775;28;20382;-92
2022/04/22 09:28:12;;;;;;;;;;;;;;;;;;5047571;28;19920;-93
2022/04/22 09:30:39;;;;;;;;;;;;;;;;;;5031006;28;19921;-92
2022/04/22 09:33:07;;;;;;;;;;;;;;;;;;5046003;28;20375;-92
2022/04/22 09:42:38;;;;;;;;;;;;;;;;;;5036122;28;19920;-93
2022/04/22 09:43:52;;;;;;;;;;;;;;;;;;5061379;28;19920;-94
2022/04/22 09:46:18;;;;;;;;;;;;;;;;;;5053041;28;19920;-94
2022/04/22 09:48:47;;;;;;;;;;;;;;;;;;5032548;28;20367;-93
2022/04/22 09:51:24;;;;;;;;;;;;;;;;;;5032343;28;19940;-92
2022/04/22 09:53:53;;;;;;;;;;;;;;;;;;5030829;28;19924;-94
2022/04/22 09:56:19;;;;;;;;;;;;;;;;;;5037388;28;19924;-93
2022/04/22 09:58:53;;;;;;;;;;;;;;;;;;5051024;28;19999;-93
2022/04/22 10:01:19;;;;;;;;;;;;;;;;;;5032975;28;19932;-94
2022/04/22 10:03:48;;;;;;;;;;;;;;;;;;5037034;28;20341;-93
2022/04/22 10:06:17;;;;;;;;;;;;;;;;;;5031076;28;19970;-92
2022/04/22 10:08:45;;;;;;;;;;;;;;;;;;5046397;28;20038;-91
2022/04/22 10:11:14;;;;;;;;;;;;;;;;;;5057455;28;19928;-93
2022/04/22 10:13:42;;;;;;;;;;;;;;;;;;5030296;28;19920;-93
2022/04/22 10:16:14;;;;;;;;;;;;;;;;;;5030889;28;19928;-92
2022/04/22 10:18:57;;;;;;;;;;;;;;;;;;5029275;28;19931;-92
2022/04/22 10:21:23;;;;;;;;;;;;;;;;;;5050950;28;19925;-93
2022/04/22 10:23:53;;;;;;;;;;;;;;;;;;5031631;28;19920;-93
2022/04/22 10:26:19;;;;;;;;;;;;;;;;;;5047129;28;19975;-93
2022/04/22 10:28:53;;;;;;;;;;;;;;;;;;5048195;28;19924;-94
2022/04/22 10:31:28;;;;;;;;;;;;;;;;;;5033541;28;19946;-92
2022/04/22 10:33:56;;;;;;;;;;;;;;;;;;5048406;28;19974;-91
2022/04/22 10:39:08;;;;;;;;;;;;;;;;;;5048354;28;19989;-94
2022/04/22 10:41:43;;;;;;;;;;;;;;;;;;5052589;28;19932;-93
2022/04/22 10:49:44;;;;;;;;;;;;;;;;;;5047749;28;19927;-92
2022/04/22 10:52:11;;;;;;;;;;;;;;;;;;5024166;28;19968;-93
2022/04/22 10:54:37;;;;;;;;;;;;;;;;;;5032899;28;19925;-93
2022/04/22 10:57:14;;;;;;;;;;;;;;;;;;5022218;28;19929;-93
2022/04/22 10:59:52;;;;;;;;;;;;;;;;;;5044410;28;19936;-92
2022/04/22 11:02:21;;;;;;;;;;;;;;;;;;5034135;28;19924;-90
2022/04/22 11:04:47;;;;;;;;;;;;;;;;;;5035991;28;19921;-93
2022/04/22 11:07:13;;;;;;;;;;;;;;;;;;5026559;28;19946;-93
2022/04/22 11:09:42;;;;;;;;;;;;;;;;;;5037720;28;19925;-93
2022/04/22 11:12:08;;;;;;;;;;;;;;;;;;5035589;28;19920;-91
2022/04/22 11:14:34;;;;;;;;;;;;;;;;;;5029374;28;20085;-93
2022/04/22 11:17:00;;;;;;;;;;;;;;;;;;5027610;28;19924;-92
2022/04/22 11:19:34;;;;;;;;;;;;;;;;;;5042115;28;19932;-92
2022/04/22 11:22:00;;;;;;;;;;;;;;;;;;5029709;28;19924;-91
2022/04/22 11:24:26;;;;;;;;;;;;;;;;;;5025056;28;19925;-93
2022/04/22 11:26:53;;;;;;;;;;;;;;;;;;5019651;28;19921;-91
2022/04/22 11:29:21;;;;;;;;;;;;;;;;;;5018223;28;20085;-93
2022/04/22 11:31:56;;;;;;;;;;;;;;;;;;5022369;28;20026;-92
2022/04/22 11:34:25;;;;;;;;;;;;;;;;;;5026985;28;19925;-92
2022/04/22 11:36:53;;;;;;;;;;;;;;;;;;5025539;28;20373;-92
2022/04/22 11:39:19;;;;;;;;;;;;;;;;;;5060577;28;19928;-92
2022/04/22 11:41:45;;;;;;;;;;;;;;;;;;5027248;28;19924;-92
2022/04/22 11:44:11;;;;;;;;;;;;;;;;;;5034211;28;20460;-93
2022/04/22 11:46:43;;;;;;;;;;;;;;;;;;5043646;28;19924;-92
2022/04/22 11:49:09;;;;;;;;;;;;;;;;;;5029377;28;19929;-93
2022/04/22 11:51:38;;;;;;;;;;;;;;;;;;5044203;28;19927;-92
2022/04/22 11:54:04;;;;;;;;;;;;;;;;;;5022597;28;20383;-91
2022/04/22 11:56:36;;;;;;;;;;;;;;;;;;5025539;28;19920;-91
2022/04/22 11:59:05;;;;;;;;;;;;;;;;;;5020645;28;19964;-92
2022/04/22 12:08:00;;;;;;;;;;;;;;;;;;5040678;28;19928;-92
2022/04/22 12:09:58;;;;;;;;;;;;;;;;;;5034360;28;19960;-91
2022/04/22 12:12:26;;;;;;;;;;;;;;;;;;5025505;28;19931;-92
2022/04/22 12:14:52;;;;;;;;;;;;;;;;;;5039216;28;19928;-91
2022/04/22 12:17:19;;;;;;;;;;;;;;;;;;5026784;28;19921;-91
2022/04/22 12:19:45;;;;;;;;;;;;;;;;;;5025981;28;20375;-92
2022/04/22 12:22:18;;;;;;;;;;;;;;;;;;5020777;28;19928;-93
2022/04/22 12:24:44;;;;;;;;;;;;;;;;;;5045051;28;19932;-91
2022/04/22 12:27:10;;;;;;;;;;;;;;;;;;5042596;28;20476;-92
2022/04/22 12:29:36;;;;;;;;;;;;;;;;;;5037285;28;20400;-91
2022/04/22 12:32:05;;;;;;;;;;;;;;;;;;5021287;28;19924;-91
2022/04/22 12:34:31;;;;;;;;;;;;;;;;;;5042933;28;19978;-91
2022/04/22 12:37:00;;;;;;;;;;;;;;;;;;5024730;28;19924;-92
2022/04/22 12:39:35;;;;;;;;;;;;;;;;;;5049423;28;20291;-93
2022/04/22 12:42:03;;;;;;;;;;;;;;;;;;5018651;28;19983;-92
2022/04/22 12:44:37;;;;;;;;;;;;;;;;;;5034173;28;20329;-93
2022/04/22 12:52:33;;;;;;;;;;;;;;;;;;5038623;28;19947;-92
2022/04/22 12:54:59;;;;;;;;;;;;;;;;;;5040047;28;19954;-92
2022/04/22 13:00:32;;;;;;;;;;;;;;;;;;5024926;28;20012;-92
2022/04/22 13:02:57;;;;;;;;;;;;;;;;;;5037522;28;19931;-93
2022/04/22 13:05:23;;;;;;;;;;;;;;;;;;5024801;28;19932;-92
2022/04/22 13:07:52;;;;;;;;;;;;;;;;;;5024134;28;19929;-93
2022/04/22 13:10:22;;;;;;;;;;;;;;;;;;5019778;28;20278;-92
2022/04/22 13:12:48;;;;;;;;;;;;;;;;;;5027953;28;19921;-92
2022/04/22 13:18:18;;;;;;;;;;;;;;;;;;5031976;28;22007;-93
2022/04/22 13:20:51;;;;;;;;;;;;;;;;;;5036624;28;20398;-92
2022/04/22 13:23:18;;;;;;;;;;;;;;;;;;5047474;28;19920;-93
2022/04/22 13:25:55;;;;;;;;;;;;;;;;;;5028349;28;20398;-91
2022/04/22 13:28:25;;;;;;;;;;;;;;;;;;5043139;28;20400;-93
2022/04/22 13:30:51;;;;;;;;;;;;;;;;;;5019706;28;19935;-91
2022/04/22 13:33:22;;;;;;;;;;;;;;;;;;5044286;28;19926;-92
2022/04/22 13:36:02;;;;;;;;;;;;;;;;;;5032834;28;19928;-92
2022/04/22 13:41:26;;;;;;;;;;;;;;;;;;5032377;28;20015;-92
2022/04/22 13:43:52;;;;;;;;;;;;;;;;;;5022540;28;19926;-91
2022/04/22 13:54:41;;;;;;;;;;;;;;;;;;5037077;28;20039;-93
2022/04/22 13:57:10;;;;;;;;;;;;;;;;;;5026864;28;20058;-92
2022/04/22 13:59:38;;;;;;;;;;;;;;;;;;5027705;28;19925;-94
2022/04/22 14:02:16;;;;;;;;;;;;;;;;;;5029675;28;19925;-93
2022/04/22 14:04:42;;;;;;;;;;;;;;;;;;5047156;28;19936;-92
2022/04/22 14:07:12;;;;;;;;;;;;;;;;;;5029979;28;20457;-92
2022/04/22 14:09:43;;;;;;;;;;;;;;;;;;5033167;28;19931;-92
2022/04/22 14:12:09;;;;;;;;;;;;;;;;;;5020291;28;20618;-92
2022/04/22 14:14:38;;;;;;;;;;;;;;;;;;5026233;28;20311;-92
2022/04/22 14:17:07;;;;;;;;;;;;;;;;;;5021597;28;19929;-92
2022/04/22 14:19:36;;;;;;;;;;;;;;;;;;5038126;28;19971;-92
2022/04/22 14:22:04;;;;;;;;;;;;;;;;;;5027652;28;20317;-92
2022/04/22 14:24:47;;;;;;;;;;;;;;;;;;5035492;28;19948;-92
2022/04/22 14:27:16;;;;;;;;;;;;;;;;;;5029779;28;19978;-92
2022/04/22 14:29:47;;;;;;;;;;;;;;;;;;5021996;28;20271;-93
2022/04/22 14:32:16;;;;;;;;;;;;;;;;;;5041988;28;19971;-91
2022/04/22 14:37:40;;;;;;;;;;;;;;;;;;5040120;28;19920;-92
2022/04/22 14:40:15;;;;;;;;;;;;;;;;;;5032616;28;19932;-93
2022/04/22 14:42:41;;;;;;;;;;;;;;;;;;5050154;28;20283;-93
2022/04/22 14:45:12;;;;;;;;;;;;;;;;;;5040632;28;19928;-92
2022/04/22 14:47:41;;;;;;;;;;;;;;;;;;5032224;28;19920;-92
2022/04/22 14:50:13;;;;;;;;;;;;;;;;;;5027515;28;20383;-93
2022/04/22 14:52:41;;;;;;;;;;;;;;;;;;5040369;28;20052;-92
2022/04/22 14:55:10;;;;;;;;;;;;;;;;;;5022155;28;20034;-93
2022/04/22 14:57:39;;;;;;;;;;;;;;;;;;5042234;28;19921;-93
2022/04/22 15:00:10;;;;;;;;;;;;;;;;;;5039555;28;19928;-93
2022/04/22 15:02:39;;;;;;;;;;;;;;;;;;5036086;28;20050;-93
2022/04/22 15:05:11;;;;;;;;;;;;;;;;;;5028894;28;20028;-92
2022/04/22 15:07:40;;;;;;;;;;;;;;;;;;5019875;28;19939;-91
2022/04/22 15:10:08;;;;;;;;;;;;;;;;;;5018024;28;19959;-91
2022/04/22 15:12:43;;;;;;;;;;;;;;;;;;5026327;28;20015;-92
2022/04/22 15:15:13;;;;;;;;;;;;;;;;;;5008001;28;20442;-91
2022/04/22 15:25:53;;;;;;;;;;;;;;;;;;5026051;28;19921;-90
2022/04/22 15:28:19;;;;;;;;;;;;;;;;;;5032699;28;19932;-90
2022/04/22 15:30:47;;;;;;;;;;;;;;;;;;5030275;28;19986;-91
2022/04/22 15:33:13;;;;;;;;;;;;;;;;;;5017728;28;19924;-91
2022/04/22 15:35:39;;;;;;;;;;;;;;;;;;5034323;28;20322;-91
2022/04/22 15:38:04;;;;;;;;;;;;;;;;;;5025450;28;19936;-91
2022/04/22 15:40:30;;;;;;;;;;;;;;;;;;5029472;28;19935;-90
2022/04/22 15:42:56;;;;;;;;;;;;;;;;;;5006009;28;19932;-92
2022/04/22 15:45:22;;;;;;;;;;;;;;;;;;5023008;28;20290;-91
2022/04/22 15:47:52;;;;;;;;;;;;;;;;;;5025116;28;20031;-92
2022/04/22 15:50:17;;;;;;;;;;;;;;;;;;5015365;28;20339;-90
2022/04/22 15:52:43;;;;;;;;;;;;;;;;;;5036212;28;19939;-90
2022/04/22 15:55:10;;;;;;;;;;;;;;;;;;5034458;28;20570;-91
2022/04/22 15:57:37;;;;;;;;;;;;;;;;;;5036031;28;20408;-90
2022/04/22 16:00:04;;;;;;;;;;;;;;;;;;5032807;28;20024;-92
2022/04/22 16:02:33;;;;;;;;;;;;;;;;;;5020960;28;20333;-92
2022/04/22 16:05:00;;;;;;;;;;;;;;;;;;4997463;28;20222;-91
2022/04/22 16:07:26;;;;;;;;;;;;;;;;;;5020607;28;19924;-92
2022/04/22 16:09:52;;;;;;;;;;;;;;;;;;5008233;28;19925;-90
2022/04/22 16:15:18;;;;;;;;;;;;;;;;;;5025445;28;19920;-92
2022/04/22 16:17:57;;;;;;;;;;;;;;;;;;5030946;28;21544;-93
2022/04/22 16:20:23;;;;;;;;;;;;;;;;;;5017098;28;19925;-92
2022/04/22 16:22:52;;;;;;;;;;;;;;;;;;5015112;28;20037;-91
2022/04/22 16:25:20;;;;;;;;;;;;;;;;;;5014570;28;19951;-92
2022/04/22 16:27:53;;;;;;;;;;;;;;;;;;5017272;28;19927;-93
2022/04/22 16:30:19;;;;;;;;;;;;;;;;;;5009849;28;19927;-92
2022/04/22 16:32:45;;;;;;;;;;;;;;;;;;5010786;28;20344;-92
2022/04/22 16:35:11;;;;;;;;;;;;;;;;;;5008430;28;19936;-92
2022/04/22 16:37:38;;;;;;;;;;;;;;;;;;5023717;28;19932;-91
2022/04/22 16:40:04;;;;;;;;;;;;;;;;;;5005183;28;19936;-91
2022/04/22 16:42:30;;;;;;;;;;;;;;;;;;5007396;28;19921;-91
2022/04/22 16:44:56;;;;;;;;;;;;;;;;;;5007908;28;20256;-94
2022/04/22 16:47:22;;;;;;;;;;;;;;;;;;5012053;28;19932;-92
2022/04/22 16:49:51;;;;;;;;;;;;;;;;;;5027211;28;19928;-92
2022/04/22 16:52:17;;;;;;;;;;;;;;;;;;5009408;28;20006;-92
2022/04/22 16:54:53;;;;;;;;;;;;;;;;;;5020353;28;19929;-93
2022/04/22 16:57:19;;;;;;;;;;;;;;;;;;5011026;28;19921;-93
2022/04/22 16:59:45;;;;;;;;;;;;;;;;;;5048783;28;20337;-93
2022/04/22 17:02:12;;;;;;;;;;;;;;;;;;5005838;28;19921;-92
2022/04/22 17:04:38;;;;;;;;;;;;;;;;;;5000738;28;20737;-92
2022/04/22 17:07:04;;;;;;;;;;;;;;;;;;4999952;28;20851;-90
2022/04/22 17:09:30;;;;;;;;;;;;;;;;;;5005025;28;19920;-92
2022/04/22 17:11:56;;;;;;;;;;;;;;;;;;4996076;28;19951;-90
2022/04/22 17:22:40;;;;;;;;;;;;;;;;;;5022381;28;20248;-93
2022/04/22 17:25:06;;;;;;;;;;;;;;;;;;5004062;28;20433;-94
2022/04/22 17:27:35;;;;;;;;;;;;;;;;;;5003686;28;20671;-93
2022/04/22 17:30:01;;;;;;;;;;;;;;;;;;5005947;28;20063;-93
2022/04/22 17:32:29;;;;;;;;;;;;;;;;;;5008748;28;19929;-93
2022/04/22 17:34:55;;;;;;;;;;;;;;;;;;5010911;28;19994;-93
2022/04/22 17:37:27;;;;;;;;;;;;;;;;;;5013823;28;19932;-91
2022/04/22 17:40:03;;;;;;;;;;;;;;;;;;;;;
2022/04/22 17:42:29;;;;;;;;;;;;;;;;;;5024830;28;20011;-90
2022/04/22 17:44:58;;;;;;;;;;;;;;;;;;5005779;28;19928;-91
2022/04/22 17:47:25;;;;;;;;;;;;;;;;;;5015446;28;19994;-91
2022/04/22 17:50:01;;;;;;;;;;;;;;;;;;5043245;28;19936;-91
2022/04/22 17:52:30;;;;;;;;;;;;;;;;;;5033409;28;19924;-91
2022/04/22 17:54:56;;;;;;;;;;;;;;;;;;5010623;28;20379;-92
2022/04/22 17:57:22;;;;;;;;;;;;;;;;;;5007514;28;19986;-92
2022/04/22 17:59:56;;;;;;;;;;;;;;;;;;5028791;28;19921;-92
2022/04/22 18:02:30;;;;;;;;;;;;;;;;;;5016002;28;19928;-92
2022/04/22 18:05:14;;;;;;;;;;;;;;;;;;5012802;28;19925;-91
2022/04/22 18:07:45;;;;;;;;;;;;;;;;;;4993686;28;20333;-92
2022/04/22 18:10:13;;;;;;;;;;;;;;;;;;4967345;28;19929;-91
2022/04/22 18:12:39;;;;;;;;;;;;;;;;;;4972427;28;19980;-92
2022/04/22 18:18:03;;;;;;;;;;;;;;;;;;;;;
2022/04/22 18:20:32;;;;;;;;;;;;;;;;;;5003807;28;19964;-93
2022/04/22 18:23:00;;;;;;;;;;;;;;;;;;4971854;28;19921;-91
2022/04/22 18:25:38;;;;;;;;;;;;;;;;;;4981120;28;21983;-91
2022/04/22 18:28:12;;;;;;;;;;;;;;;;;;4995243;28;19936;-92
2022/04/22 18:30:41;;;;;;;;;;;;;;;;;;4981850;28;20014;-92
2022/04/22 18:33:12;;;;;;;;;;;;;;;;;;4975771;28;20434;-92
2022/04/22 18:35:39;;;;;;;;;;;;;;;;;;4979291;28;21539;-90
2022/04/22 18:38:08;;;;;;;;;;;;;;;;;;4963958;28;19992;-91
2022/04/22 18:40:34;;;;;;;;;;;;;;;;;;4972935;28;19996;-91
2022/04/22 18:43:06;;;;;;;;;;;;;;;;;;4986352;28;20339;-92
2022/04/22 18:45:39;;;;;;;;;;;;;;;;;;4986681;28;19929;-92
2022/04/22 18:48:07;;;;;;;;;;;;;;;;;;4974507;28;19929;-91
2022/04/22 18:50:37;;;;;;;;;;;;;;;;;;4976289;28;20048;-91
2022/04/22 18:53:08;;;;;;;;;;;;;;;;;;4973244;28;19987;-93